sensor_id;sensor_type;location;lat;lon;timestamp;temperature;humidity
12872;DHT22;6504;53.766;9.626;2022-08-21T00:02:26;16.90;99.90
12872;DHT22;6504;53.766;9.626;2022-08-21T00:04:55;16.90;99.90
12872;DHT22;6504;53.766;9.626;2022-08-21T00:07:24;16.90;99.90
12872;DHT22;6504;53.766;9.626;2022-08-21T00:09:55;16.80;99.90
12872;DHT22;6504;53.766;9.626;2022-08-21T00:12:24;16.80;99.90
12872;DHT22;6504;53.766;9.626;2022-08-21T00:14:55;16.80;99.90
12872;DHT22;6504;53.766;9.626;2022-08-21T00:17:26;16.80;99.90
12872;DHT22;6504;53.766;9.626;2022-08-21T00:19:57;16.70;99.90
12872;DHT22;6504;53.766;9.626;2022-08-21T00:22:25;16.70;99.90
12872;DHT22;6504;53.766;9.626;2022-08-21T00:24:53;16.60;99.90
12872;DHT22;6504;53.766;9.626;2022-08-21T00:27:22;16.60;99.90
12872;DHT22;6504;53.766;9.626;2022-08-21T00:29:51;16.50;99.90
12872;DHT22;6504;53.766;9.626;2022-08-21T00:32:24;16.50;99.90
12872;DHT22;6504;53.766;9.626;2022-08-21T00:34:53;16.40;99.90
12872;DHT22;6504;53.766;9.626;2022-08-21T00:37:21;16.40;99.90
12872;DHT22;6504;53.766;9.626;2022-08-21T00:39:49;16.40;99.90
12872;DHT22;6504;53.766;9.626;2022-08-21T00:42:18;16.30;99.90
12872;DHT22;6504;53.766;9.626;2022-08-21T00:44:52;16.30;99.90
12872;DHT22;6504;53.766;9.626;2022-08-21T00:47:21;16.30;99.90
12872;DHT22;6504;53.766;9.626;2022-08-21T00:49:52;16.20;99.90
12872;DHT22;6504;53.766;9.626;2022-08-21T00:52:26;16.20;99.90
12872;DHT22;6504;53.766;9.626;2022-08-21T00:54:55;16.20;99.90
12872;DHT22;6504;53.766;9.626;2022-08-21T00:57:29;16.20;99.90
12872;DHT22;6504;53.766;9.626;2022-08-21T01:00:07;16.20;99.90
12872;DHT22;6504;53.766;9.626;2022-08-21T01:02:35;16.20;99.90
12872;DHT22;6504;53.766;9.626;2022-08-21T01:05:05;16.20;99.90
12872;DHT22;6504;53.766;9.626;2022-08-21T01:07:35;16.10;99.90
12872;DHT22;6504;53.766;9.626;2022-08-21T01:10:07;16.10;99.90
12872;DHT22;6504;53.766;9.626;2022-08-21T01:12:46;16.10;99.90
12872;DHT22;6504;53.766;9.626;2022-08-21T01:15:17;16.10;99.90
12872;DHT22;6504;53.766;9.626;2022-08-21T01:17:49;16.10;99.90
12872;DHT22;6504;53.766;9.626;2022-08-21T01:20:18;16.10;99.90
12872;DHT22;6504;53.766;9.626;2022-08-21T01:22:47;16.10;99.90
12872;DHT22;6504;53.766;9.626;2022-08-21T01:25:17;16.10;99.90
12872;DHT22;6504;53.766;9.626;2022-08-21T01:27:46;16.10;99.90
12872;DHT22;6504;53.766;9.626;2022-08-21T01:30:19;16.00;99.90
12872;DHT22;6504;53.766;9.626;2022-08-21T01:32:48;16.00;99.90
12872;DHT22;6504;53.766;9.626;2022-08-21T01:35:21;16.00;99.90
12872;DHT22;6504;53.766;9.626;2022-08-21T01:37:51;16.00;99.90
12872;DHT22;6504;53.766;9.626;2022-08-21T01:40:19;16.00;99.90
12872;DHT22;6504;53.766;9.626;2022-08-21T01:42:48;16.00;99.90
12872;DHT22;6504;53.766;9.626;2022-08-21T01:45:17;15.90;99.90
12872;DHT22;6504;53.766;9.626;2022-08-21T01:47:45;16.00;99.90
12872;DHT22;6504;53.766;9.626;2022-08-21T01:50:18;16.00;99.90
12872;DHT22;6504;53.766;9.626;2022-08-21T01:52:47;16.00;99.90
12872;DHT22;6504;53.766;9.626;2022-08-21T01:55:20;15.90;99.90
12872;DHT22;6504;53.766;9.626;2022-08-21T01:57:49;15.90;99.90
12872;DHT22;6504;53.766;9.626;2022-08-21T02:00:21;15.90;99.90
12872;DHT22;6504;53.766;9.626;2022-08-21T02:02:50;15.80;99.90
12872;DHT22;6504;53.766;9.626;2022-08-21T02:05:20;15.80;99.90
12872;DHT22;6504;53.766;9.626;2022-08-21T02:07:54;15.80;99.90
12872;DHT22;6504;53.766;9.626;2022-08-21T02:10:27;15.70;99.90
12872;DHT22;6504;53.766;9.626;2022-08-21T02:12:56;15.70;99.90
12872;DHT22;6504;53.766;9.626;2022-08-21T02:15:26;15.60;99.90
12872;DHT22;6504;53.766;9.626;2022-08-21T02:17:56;15.60;99.90
12872;DHT22;6504;53.766;9.626;2022-08-21T02:20:29;15.50;99.90
12872;DHT22;6504;53.766;9.626;2022-08-21T02:22:58;15.50;99.90
12872;DHT22;6504;53.766;9.626;2022-08-21T02:25:31;15.50;99.90
12872;DHT22;6504;53.766;9.626;2022-08-21T02:28:06;15.40;99.90
12872;DHT22;6504;53.766;9.626;2022-08-21T02:30:38;15.40;99.90
12872;DHT22;6504;53.766;9.626;2022-08-21T02:33:13;15.30;99.90
12872;DHT22;6504;53.766;9.626;2022-08-21T02:35:43;15.30;99.90
12872;DHT22;6504;53.766;9.626;2022-08-21T02:38:14;15.30;99.90
12872;DHT22;6504;53.766;9.626;2022-08-21T02:40:47;15.30;99.90
12872;DHT22;6504;53.766;9.626;2022-08-21T02:43:21;15.30;99.90
12872;DHT22;6504;53.766;9.626;2022-08-21T02:45:50;15.30;99.90
12872;DHT22;6504;53.766;9.626;2022-08-21T02:48:24;15.30;99.90
12872;DHT22;6504;53.766;9.626;2022-08-21T02:50:56;15.30;99.90
12872;DHT22;6504;53.766;9.626;2022-08-21T02:53:26;15.20;99.90
12872;DHT22;6504;53.766;9.626;2022-08-21T02:56:00;15.20;99.90
12872;DHT22;6504;53.766;9.626;2022-08-21T02:58:32;15.20;99.90
12872;DHT22;6504;53.766;9.626;2022-08-21T03:01:04;15.20;99.90
12872;DHT22;6504;53.766;9.626;2022-08-21T03:03:37;15.10;99.90
12872;DHT22;6504;53.766;9.626;2022-08-21T03:06:10;15.10;99.90
12872;DHT22;6504;53.766;9.626;2022-08-21T03:08:42;15.10;99.90
12872;DHT22;6504;53.766;9.626;2022-08-21T03:11:14;15.00;99.90
12872;DHT22;6504;53.766;9.626;2022-08-21T03:13:42;15.00;99.90
12872;DHT22;6504;53.766;9.626;2022-08-21T03:16:10;15.00;99.90
12872;DHT22;6504;53.766;9.626;2022-08-21T03:18:39;14.90;99.90
12872;DHT22;6504;53.766;9.626;2022-08-21T03:21:09;15.00;99.90
12872;DHT22;6504;53.766;9.626;2022-08-21T03:23:43;14.90;99.90
12872;DHT22;6504;53.766;9.626;2022-08-21T03:26:13;14.90;99.90
12872;DHT22;6504;53.766;9.626;2022-08-21T03:28:41;14.90;99.90
12872;DHT22;6504;53.766;9.626;2022-08-21T03:31:10;14.90;99.90
12872;DHT22;6504;53.766;9.626;2022-08-21T03:33:38;14.90;99.90
12872;DHT22;6504;53.766;9.626;2022-08-21T03:36:09;14.90;99.90
12872;DHT22;6504;53.766;9.626;2022-08-21T03:38:38;14.90;99.90
12872;DHT22;6504;53.766;9.626;2022-08-21T03:41:09;14.80;99.90
12872;DHT22;6504;53.766;9.626;2022-08-21T03:43:38;14.80;99.90
12872;DHT22;6504;53.766;9.626;2022-08-21T03:46:10;14.80;99.90
12872;DHT22;6504;53.766;9.626;2022-08-21T03:48:38;14.80;99.90
12872;DHT22;6504;53.766;9.626;2022-08-21T03:51:07;14.70;99.90
12872;DHT22;6504;53.766;9.626;2022-08-21T03:53:38;14.70;99.90
12872;DHT22;6504;53.766;9.626;2022-08-21T03:56:06;14.70;99.90
12872;DHT22;6504;53.766;9.626;2022-08-21T03:58:39;14.70;99.90
12872;DHT22;6504;53.766;9.626;2022-08-21T04:01:08;14.70;99.90
12872;DHT22;6504;53.766;9.626;2022-08-21T04:03:37;14.70;99.90
12872;DHT22;6504;53.766;9.626;2022-08-21T04:06:09;14.60;99.90
12872;DHT22;6504;53.766;9.626;2022-08-21T04:08:37;14.60;99.90
12872;DHT22;6504;53.766;9.626;2022-08-21T04:11:12;14.60;99.90
12872;DHT22;6504;53.766;9.626;2022-08-21T04:13:43;14.60;99.90
12872;DHT22;6504;53.766;9.626;2022-08-21T04:16:12;14.60;99.90
12872;DHT22;6504;53.766;9.626;2022-08-21T04:18:40;14.60;99.90
12872;DHT22;6504;53.766;9.626;2022-08-21T04:21:10;14.60;99.90
12872;DHT22;6504;53.766;9.626;2022-08-21T04:23:39;14.60;99.90
12872;DHT22;6504;53.766;9.626;2022-08-21T04:26:08;14.60;99.90
12872;DHT22;6504;53.766;9.626;2022-08-21T04:28:36;14.60;99.90
12872;DHT22;6504;53.766;9.626;2022-08-21T04:31:08;14.50;99.90
12872;DHT22;6504;53.766;9.626;2022-08-21T04:33:36;14.50;99.90
12872;DHT22;6504;53.766;9.626;2022-08-21T04:36:05;14.50;99.90
12872;DHT22;6504;53.766;9.626;2022-08-21T04:38:38;14.50;99.90
12872;DHT22;6504;53.766;9.626;2022-08-21T04:41:10;14.50;99.90
12872;DHT22;6504;53.766;9.626;2022-08-21T04:43:39;14.50;99.90
12872;DHT22;6504;53.766;9.626;2022-08-21T04:46:09;14.50;99.90
12872;DHT22;6504;53.766;9.626;2022-08-21T04:48:40;14.50;99.90
12872;DHT22;6504;53.766;9.626;2022-08-21T04:51:13;14.40;99.90
12872;DHT22;6504;53.766;9.626;2022-08-21T04:53:51;14.50;99.90
12872;DHT22;6504;53.766;9.626;2022-08-21T04:56:23;14.50;99.90
12872;DHT22;6504;53.766;9.626;2022-08-21T04:58:53;14.50;99.90
12872;DHT22;6504;53.766;9.626;2022-08-21T05:01:28;14.50;99.90
12872;DHT22;6504;53.766;9.626;2022-08-21T05:03:59;14.50;99.90
12872;DHT22;6504;53.766;9.626;2022-08-21T05:06:30;14.50;99.90
12872;DHT22;6504;53.766;9.626;2022-08-21T05:09:01;14.50;99.90
12872;DHT22;6504;53.766;9.626;2022-08-21T05:11:30;14.60;99.90
12872;DHT22;6504;53.766;9.626;2022-08-21T05:13:59;14.50;99.90
12872;DHT22;6504;53.766;9.626;2022-08-21T05:16:31;14.60;99.90
12872;DHT22;6504;53.766;9.626;2022-08-21T05:19:04;14.60;99.90
12872;DHT22;6504;53.766;9.626;2022-08-21T05:21:44;14.60;99.90
12872;DHT22;6504;53.766;9.626;2022-08-21T05:24:12;14.60;99.90
12872;DHT22;6504;53.766;9.626;2022-08-21T05:26:41;14.70;99.90
12872;DHT22;6504;53.766;9.626;2022-08-21T05:29:12;14.70;99.90
12872;DHT22;6504;53.766;9.626;2022-08-21T05:31:43;14.80;99.90
12872;DHT22;6504;53.766;9.626;2022-08-21T05:34:12;14.80;99.90
12872;DHT22;6504;53.766;9.626;2022-08-21T05:36:43;14.80;99.90
12872;DHT22;6504;53.766;9.626;2022-08-21T05:39:11;14.80;99.90
12872;DHT22;6504;53.766;9.626;2022-08-21T05:41:39;14.90;99.90
12872;DHT22;6504;53.766;9.626;2022-08-21T05:44:08;14.90;99.90
12872;DHT22;6504;53.766;9.626;2022-08-21T05:46:37;15.00;99.90
12872;DHT22;6504;53.766;9.626;2022-08-21T05:49:07;15.10;99.90
12872;DHT22;6504;53.766;9.626;2022-08-21T05:51:35;15.20;99.90
12872;DHT22;6504;53.766;9.626;2022-08-21T05:54:07;15.30;99.90
12872;DHT22;6504;53.766;9.626;2022-08-21T05:56:35;15.30;99.90
12872;DHT22;6504;53.766;9.626;2022-08-21T05:59:03;15.40;99.90
12872;DHT22;6504;53.766;9.626;2022-08-21T06:01:34;15.50;99.90
12872;DHT22;6504;53.766;9.626;2022-08-21T06:04:03;15.60;99.90
12872;DHT22;6504;53.766;9.626;2022-08-21T06:06:40;15.60;99.90
12872;DHT22;6504;53.766;9.626;2022-08-21T06:09:08;15.60;99.90
12872;DHT22;6504;53.766;9.626;2022-08-21T06:11:36;15.70;99.90
12872;DHT22;6504;53.766;9.626;2022-08-21T06:14:04;15.80;99.90
12872;DHT22;6504;53.766;9.626;2022-08-21T06:16:34;15.80;99.90
12872;DHT22;6504;53.766;9.626;2022-08-21T06:19:05;15.90;99.90
12872;DHT22;6504;53.766;9.626;2022-08-21T06:21:33;15.90;99.90
12872;DHT22;6504;53.766;9.626;2022-08-21T06:24:09;15.90;99.90
12872;DHT22;6504;53.766;9.626;2022-08-21T06:26:37;16.00;99.90
12872;DHT22;6504;53.766;9.626;2022-08-21T06:29:08;16.00;99.90
12872;DHT22;6504;53.766;9.626;2022-08-21T06:31:39;16.00;99.90
12872;DHT22;6504;53.766;9.626;2022-08-21T06:34:10;16.10;99.90
12872;DHT22;6504;53.766;9.626;2022-08-21T06:36:38;16.10;99.90
12872;DHT22;6504;53.766;9.626;2022-08-21T06:39:10;16.10;99.90
12872;DHT22;6504;53.766;9.626;2022-08-21T06:41:58;16.10;99.90
12872;DHT22;6504;53.766;9.626;2022-08-21T06:44:27;16.20;99.90
12872;DHT22;6504;53.766;9.626;2022-08-21T06:46:55;16.20;99.90
12872;DHT22;6504;53.766;9.626;2022-08-21T06:49:23;16.30;99.90
12872;DHT22;6504;53.766;9.626;2022-08-21T06:51:54;16.30;99.90
12872;DHT22;6504;53.766;9.626;2022-08-21T06:54:24;16.30;99.90
12872;DHT22;6504;53.766;9.626;2022-08-21T06:56:55;16.30;99.90
12872;DHT22;6504;53.766;9.626;2022-08-21T06:59:23;16.40;99.90
12872;DHT22;6504;53.766;9.626;2022-08-21T07:01:57;16.40;99.90
12872;DHT22;6504;53.766;9.626;2022-08-21T07:04:25;16.50;99.90
12872;DHT22;6504;53.766;9.626;2022-08-21T07:06:53;16.50;99.90
12872;DHT22;6504;53.766;9.626;2022-08-21T07:09:24;16.60;99.90
12872;DHT22;6504;53.766;9.626;2022-08-21T07:11:57;16.70;99.90
12872;DHT22;6504;53.766;9.626;2022-08-21T07:14:25;16.70;99.90
12872;DHT22;6504;53.766;9.626;2022-08-21T07:16:56;16.80;99.90
12872;DHT22;6504;53.766;9.626;2022-08-21T07:19:24;16.90;99.90
12872;DHT22;6504;53.766;9.626;2022-08-21T07:21:54;17.10;99.90
12872;DHT22;6504;53.766;9.626;2022-08-21T07:24:28;17.20;99.90
12872;DHT22;6504;53.766;9.626;2022-08-21T07:26:56;17.30;99.90
12872;DHT22;6504;53.766;9.626;2022-08-21T07:29:24;17.50;99.90
12872;DHT22;6504;53.766;9.626;2022-08-21T07:31:52;17.70;99.90
12872;DHT22;6504;53.766;9.626;2022-08-21T07:34:23;17.80;99.90
12872;DHT22;6504;53.766;9.626;2022-08-21T07:36:52;17.90;99.90
12872;DHT22;6504;53.766;9.626;2022-08-21T07:39:20;17.90;99.90
12872;DHT22;6504;53.766;9.626;2022-08-21T07:41:56;18.00;99.90
12872;DHT22;6504;53.766;9.626;2022-08-21T07:44:24;18.20;99.90
12872;DHT22;6504;53.766;9.626;2022-08-21T07:46:55;18.30;99.90
12872;DHT22;6504;53.766;9.626;2022-08-21T07:49:23;18.50;99.90
12872;DHT22;6504;53.766;9.626;2022-08-21T07:51:51;18.60;99.90
12872;DHT22;6504;53.766;9.626;2022-08-21T07:54:19;18.60;99.90
12872;DHT22;6504;53.766;9.626;2022-08-21T07:57:01;18.70;99.90
12872;DHT22;6504;53.766;9.626;2022-08-21T07:59:29;18.70;99.90
12872;DHT22;6504;53.766;9.626;2022-08-21T08:01:59;18.80;99.90
12872;DHT22;6504;53.766;9.626;2022-08-21T08:04:27;18.90;99.90
12872;DHT22;6504;53.766;9.626;2022-08-21T08:06:55;19.00;99.90
12872;DHT22;6504;53.766;9.626;2022-08-21T08:09:23;19.10;99.90
12872;DHT22;6504;53.766;9.626;2022-08-21T08:11:51;19.20;99.90
12872;DHT22;6504;53.766;9.626;2022-08-21T08:14:22;19.30;99.90
12872;DHT22;6504;53.766;9.626;2022-08-21T08:16:57;19.40;99.90
12872;DHT22;6504;53.766;9.626;2022-08-21T08:19:27;19.50;99.90
12872;DHT22;6504;53.766;9.626;2022-08-21T08:21:55;19.60;99.90
12872;DHT22;6504;53.766;9.626;2022-08-21T08:24:26;19.70;99.90
12872;DHT22;6504;53.766;9.626;2022-08-21T08:26:54;19.80;99.90
12872;DHT22;6504;53.766;9.626;2022-08-21T08:29:28;19.90;99.90
12872;DHT22;6504;53.766;9.626;2022-08-21T08:31:57;20.00;99.90
12872;DHT22;6504;53.766;9.626;2022-08-21T08:34:28;20.10;99.90
12872;DHT22;6504;53.766;9.626;2022-08-21T08:36:57;20.20;99.90
12872;DHT22;6504;53.766;9.626;2022-08-21T08:39:26;20.30;99.90
12872;DHT22;6504;53.766;9.626;2022-08-21T08:42:06;20.40;99.90
12872;DHT22;6504;53.766;9.626;2022-08-21T08:45:05;20.50;99.90
12872;DHT22;6504;53.766;9.626;2022-08-21T08:47:36;20.60;99.90
12872;DHT22;6504;53.766;9.626;2022-08-21T08:50:17;20.70;99.90
12872;DHT22;6504;53.766;9.626;2022-08-21T08:52:51;20.80;99.90
12872;DHT22;6504;53.766;9.626;2022-08-21T08:55:30;20.80;99.90
12872;DHT22;6504;53.766;9.626;2022-08-21T08:58:00;20.90;99.90
12872;DHT22;6504;53.766;9.626;2022-08-21T09:00:32;21.00;99.90
12872;DHT22;6504;53.766;9.626;2022-08-21T09:03:04;21.20;99.90
12872;DHT22;6504;53.766;9.626;2022-08-21T09:05:46;21.30;99.90
12872;DHT22;6504;53.766;9.626;2022-08-21T09:08:31;21.30;99.90
12872;DHT22;6504;53.766;9.626;2022-08-21T09:11:12;21.40;99.90
12872;DHT22;6504;53.766;9.626;2022-08-21T09:13:54;21.60;99.90
12872;DHT22;6504;53.766;9.626;2022-08-21T09:16:36;21.60;99.90
12872;DHT22;6504;53.766;9.626;2022-08-21T09:19:14;21.70;99.90
12872;DHT22;6504;53.766;9.626;2022-08-21T09:22:02;21.80;99.90
12872;DHT22;6504;53.766;9.626;2022-08-21T09:24:33;21.90;99.90
12872;DHT22;6504;53.766;9.626;2022-08-21T09:27:10;22.00;99.90
12872;DHT22;6504;53.766;9.626;2022-08-21T09:29:41;22.10;99.90
12872;DHT22;6504;53.766;9.626;2022-08-21T09:32:15;22.20;99.90
12872;DHT22;6504;53.766;9.626;2022-08-21T09:34:56;22.30;99.90
12872;DHT22;6504;53.766;9.626;2022-08-21T09:37:25;22.40;99.90
12872;DHT22;6504;53.766;9.626;2022-08-21T09:39:56;22.60;99.90
12872;DHT22;6504;53.766;9.626;2022-08-21T09:42:28;22.70;99.90
12872;DHT22;6504;53.766;9.626;2022-08-21T09:45:10;22.80;99.90
12872;DHT22;6504;53.766;9.626;2022-08-21T09:47:41;22.90;99.90
12872;DHT22;6504;53.766;9.626;2022-08-21T09:50:13;23.00;99.90
12872;DHT22;6504;53.766;9.626;2022-08-21T09:52:51;23.00;99.90
12872;DHT22;6504;53.766;9.626;2022-08-21T09:55:26;23.10;99.90
12872;DHT22;6504;53.766;9.626;2022-08-21T09:58:14;23.20;99.90
12872;DHT22;6504;53.766;9.626;2022-08-21T10:00:42;23.20;99.90
12872;DHT22;6504;53.766;9.626;2022-08-21T10:03:19;23.30;99.90
12872;DHT22;6504;53.766;9.626;2022-08-21T10:05:57;23.50;99.90
12872;DHT22;6504;53.766;9.626;2022-08-21T10:08:27;23.60;99.90
12872;DHT22;6504;53.766;9.626;2022-08-21T10:11:04;23.70;99.90
12872;DHT22;6504;53.766;9.626;2022-08-21T10:13:47;23.80;99.90
12872;DHT22;6504;53.766;9.626;2022-08-21T10:16:30;23.90;99.90
12872;DHT22;6504;53.766;9.626;2022-08-21T10:19:16;23.90;99.90
12872;DHT22;6504;53.766;9.626;2022-08-21T10:21:59;24.00;99.90
12872;DHT22;6504;53.766;9.626;2022-08-21T10:24:35;24.00;99.90
12872;DHT22;6504;53.766;9.626;2022-08-21T10:27:13;24.00;99.90
12872;DHT22;6504;53.766;9.626;2022-08-21T10:29:51;24.10;99.90
12872;DHT22;6504;53.766;9.626;2022-08-21T10:32:29;24.30;99.90
12872;DHT22;6504;53.766;9.626;2022-08-21T10:35:09;24.40;99.90
12872;DHT22;6504;53.766;9.626;2022-08-21T10:37:57;24.50;99.90
12872;DHT22;6504;53.766;9.626;2022-08-21T10:40:34;24.60;99.90
12872;DHT22;6504;53.766;9.626;2022-08-21T10:43:16;24.80;99.90
12872;DHT22;6504;53.766;9.626;2022-08-21T10:45:56;24.90;99.90
12872;DHT22;6504;53.766;9.626;2022-08-21T10:48:28;24.90;99.90
12872;DHT22;6504;53.766;9.626;2022-08-21T10:51:06;25.00;99.90
12872;DHT22;6504;53.766;9.626;2022-08-21T10:53:52;25.00;99.90
12872;DHT22;6504;53.766;9.626;2022-08-21T10:56:23;25.10;99.90
12872;DHT22;6504;53.766;9.626;2022-08-21T10:59:19;25.10;99.90
12872;DHT22;6504;53.766;9.626;2022-08-21T11:01:54;25.10;99.90
12872;DHT22;6504;53.766;9.626;2022-08-21T11:04:30;25.10;99.90
12872;DHT22;6504;53.766;9.626;2022-08-21T11:07:25;25.10;99.90
12872;DHT22;6504;53.766;9.626;2022-08-21T11:10:08;25.20;99.90
12872;DHT22;6504;53.766;9.626;2022-08-21T11:12:41;25.30;99.90
12872;DHT22;6504;53.766;9.626;2022-08-21T11:15:26;25.30;99.90
12872;DHT22;6504;53.766;9.626;2022-08-21T11:18:10;25.40;99.90
12872;DHT22;6504;53.766;9.626;2022-08-21T11:20:46;25.50;99.90
12872;DHT22;6504;53.766;9.626;2022-08-21T11:23:24;25.60;99.90
12872;DHT22;6504;53.766;9.626;2022-08-21T11:25:57;25.70;99.90
12872;DHT22;6504;53.766;9.626;2022-08-21T11:28:31;25.70;99.90
12872;DHT22;6504;53.766;9.626;2022-08-21T11:31:13;25.70;99.90
12872;DHT22;6504;53.766;9.626;2022-08-21T11:33:53;25.70;99.90
12872;DHT22;6504;53.766;9.626;2022-08-21T11:36:31;25.80;99.90
12872;DHT22;6504;53.766;9.626;2022-08-21T11:39:09;25.70;99.90
12872;DHT22;6504;53.766;9.626;2022-08-21T11:41:47;25.80;99.90
12872;DHT22;6504;53.766;9.626;2022-08-21T11:44:27;25.90;99.90
12872;DHT22;6504;53.766;9.626;2022-08-21T11:47:03;26.00;99.90
12872;DHT22;6504;53.766;9.626;2022-08-21T11:49:47;26.10;99.90
12872;DHT22;6504;53.766;9.626;2022-08-21T11:52:20;26.00;99.90
12872;DHT22;6504;53.766;9.626;2022-08-21T11:54:57;26.00;99.90
12872;DHT22;6504;53.766;9.626;2022-08-21T11:57:31;26.00;99.90
12872;DHT22;6504;53.766;9.626;2022-08-21T12:00:10;26.00;99.90
12872;DHT22;6504;53.766;9.626;2022-08-21T12:02:45;26.10;99.90
12872;DHT22;6504;53.766;9.626;2022-08-21T12:05:31;26.20;99.90
12872;DHT22;6504;53.766;9.626;2022-08-21T12:08:05;26.20;99.90
12872;DHT22;6504;53.766;9.626;2022-08-21T12:10:47;26.10;99.90
12872;DHT22;6504;53.766;9.626;2022-08-21T12:13:25;26.10;99.90
12872;DHT22;6504;53.766;9.626;2022-08-21T12:16:10;26.00;99.90
12872;DHT22;6504;53.766;9.626;2022-08-21T12:18:43;26.20;99.90
12872;DHT22;6504;53.766;9.626;2022-08-21T12:21:24;26.20;99.90
12872;DHT22;6504;53.766;9.626;2022-08-21T12:24:16;26.30;99.90
12872;DHT22;6504;53.766;9.626;2022-08-21T12:26:56;26.30;99.90
12872;DHT22;6504;53.766;9.626;2022-08-21T12:29:30;26.20;99.90
12872;DHT22;6504;53.766;9.626;2022-08-21T12:32:00;26.30;99.90
12872;DHT22;6504;53.766;9.626;2022-08-21T12:34:35;26.20;99.90
12872;DHT22;6504;53.766;9.626;2022-08-21T12:37:10;26.30;99.90
12872;DHT22;6504;53.766;9.626;2022-08-21T12:39:45;26.40;99.90
12872;DHT22;6504;53.766;9.626;2022-08-21T12:42:23;26.50;99.90
12872;DHT22;6504;53.766;9.626;2022-08-21T12:44:55;26.50;99.90
12872;DHT22;6504;53.766;9.626;2022-08-21T12:47:28;26.50;99.90
12872;DHT22;6504;53.766;9.626;2022-08-21T12:50:03;26.50;99.90
12872;DHT22;6504;53.766;9.626;2022-08-21T12:52:41;26.60;99.90
12872;DHT22;6504;53.766;9.626;2022-08-21T12:55:15;26.60;99.90
12872;DHT22;6504;53.766;9.626;2022-08-21T12:57:45;26.70;99.90
12872;DHT22;6504;53.766;9.626;2022-08-21T13:00:20;26.70;99.90
12872;DHT22;6504;53.766;9.626;2022-08-21T13:02:49;26.80;99.90
12872;DHT22;6504;53.766;9.626;2022-08-21T13:05:29;26.90;99.90
12872;DHT22;6504;53.766;9.626;2022-08-21T13:07:58;26.90;99.90
12872;DHT22;6504;53.766;9.626;2022-08-21T13:10:29;27.00;99.90
12872;DHT22;6504;53.766;9.626;2022-08-21T13:13:05;26.90;99.90
12872;DHT22;6504;53.766;9.626;2022-08-21T13:15:40;26.90;99.90
12872;DHT22;6504;53.766;9.626;2022-08-21T13:18:21;27.00;99.90
12872;DHT22;6504;53.766;9.626;2022-08-21T13:21:10;27.00;99.90
12872;DHT22;6504;53.766;9.626;2022-08-21T13:23:39;27.20;99.90
12872;DHT22;6504;53.766;9.626;2022-08-21T13:26:14;27.20;99.90
12872;DHT22;6504;53.766;9.626;2022-08-21T13:28:51;27.30;99.90
12872;DHT22;6504;53.766;9.626;2022-08-21T13:31:27;27.40;99.90
12872;DHT22;6504;53.766;9.626;2022-08-21T13:33:58;27.50;99.90
12872;DHT22;6504;53.766;9.626;2022-08-21T13:36:30;27.60;99.90
12872;DHT22;6504;53.766;9.626;2022-08-21T13:39:03;27.70;99.90
12872;DHT22;6504;53.766;9.626;2022-08-21T13:41:36;27.70;99.90
12872;DHT22;6504;53.766;9.626;2022-08-21T13:44:15;27.60;99.90
12872;DHT22;6504;53.766;9.626;2022-08-21T13:46:48;27.60;99.90
12872;DHT22;6504;53.766;9.626;2022-08-21T13:49:18;27.60;99.90
12872;DHT22;6504;53.766;9.626;2022-08-21T13:51:48;27.60;99.90
12872;DHT22;6504;53.766;9.626;2022-08-21T13:54:23;27.40;99.90
12872;DHT22;6504;53.766;9.626;2022-08-21T13:56:55;27.40;99.90
12872;DHT22;6504;53.766;9.626;2022-08-21T13:59:29;27.30;99.90
12872;DHT22;6504;53.766;9.626;2022-08-21T14:01:59;27.20;99.90
12872;DHT22;6504;53.766;9.626;2022-08-21T14:04:35;27.10;99.90
12872;DHT22;6504;53.766;9.626;2022-08-21T14:07:15;27.00;99.90
12872;DHT22;6504;53.766;9.626;2022-08-21T14:09:45;27.00;99.90
12872;DHT22;6504;53.766;9.626;2022-08-21T14:12:15;26.90;99.90
12872;DHT22;6504;53.766;9.626;2022-08-21T14:14:51;26.80;99.90
12872;DHT22;6504;53.766;9.626;2022-08-21T14:17:29;26.80;99.90
12872;DHT22;6504;53.766;9.626;2022-08-21T14:19:59;26.80;99.90
12872;DHT22;6504;53.766;9.626;2022-08-21T14:22:39;26.80;99.90
12872;DHT22;6504;53.766;9.626;2022-08-21T14:25:13;26.90;99.90
12872;DHT22;6504;53.766;9.626;2022-08-21T14:27:54;26.90;99.90
12872;DHT22;6504;53.766;9.626;2022-08-21T14:30:30;26.90;99.90
12872;DHT22;6504;53.766;9.626;2022-08-21T14:33:03;27.00;99.90
12872;DHT22;6504;53.766;9.626;2022-08-21T14:35:35;27.10;99.90
12872;DHT22;6504;53.766;9.626;2022-08-21T14:38:11;27.20;99.90
12872;DHT22;6504;53.766;9.626;2022-08-21T14:40:43;27.20;99.90
12872;DHT22;6504;53.766;9.626;2022-08-21T14:43:12;27.30;99.90
12872;DHT22;6504;53.766;9.626;2022-08-21T14:45:42;27.30;99.90
12872;DHT22;6504;53.766;9.626;2022-08-21T14:48:10;27.30;99.90
12872;DHT22;6504;53.766;9.626;2022-08-21T14:50:42;27.40;99.90
12872;DHT22;6504;53.766;9.626;2022-08-21T14:53:10;27.50;99.90
12872;DHT22;6504;53.766;9.626;2022-08-21T14:55:39;27.50;99.90
12872;DHT22;6504;53.766;9.626;2022-08-21T14:58:28;27.50;99.90
12872;DHT22;6504;53.766;9.626;2022-08-21T15:00:58;27.60;99.90
12872;DHT22;6504;53.766;9.626;2022-08-21T15:03:30;27.60;99.90
12872;DHT22;6504;53.766;9.626;2022-08-21T15:05:59;27.70;99.90
12872;DHT22;6504;53.766;9.626;2022-08-21T15:08:31;27.70;99.90
12872;DHT22;6504;53.766;9.626;2022-08-21T15:11:00;27.80;99.90
12872;DHT22;6504;53.766;9.626;2022-08-21T15:13:40;27.70;99.90
12872;DHT22;6504;53.766;9.626;2022-08-21T15:16:10;27.70;99.90
12872;DHT22;6504;53.766;9.626;2022-08-21T15:18:41;27.70;99.90
12872;DHT22;6504;53.766;9.626;2022-08-21T15:21:10;27.70;99.90
12872;DHT22;6504;53.766;9.626;2022-08-21T15:23:40;27.80;99.90
12872;DHT22;6504;53.766;9.626;2022-08-21T15:26:10;27.80;99.90
12872;DHT22;6504;53.766;9.626;2022-08-21T15:28:38;27.80;99.90
12872;DHT22;6504;53.766;9.626;2022-08-21T15:31:15;27.90;99.90
12872;DHT22;6504;53.766;9.626;2022-08-21T15:33:46;27.80;99.90
12872;DHT22;6504;53.766;9.626;2022-08-21T15:36:14;27.80;99.90
12872;DHT22;6504;53.766;9.626;2022-08-21T15:38:43;27.70;99.90
12872;DHT22;6504;53.766;9.626;2022-08-21T15:41:11;27.60;99.90
12872;DHT22;6504;53.766;9.626;2022-08-21T15:43:45;27.60;99.90
12872;DHT22;6504;53.766;9.626;2022-08-21T15:46:16;27.50;99.90
12872;DHT22;6504;53.766;9.626;2022-08-21T15:48:48;27.50;99.90
12872;DHT22;6504;53.766;9.626;2022-08-21T15:51:16;27.50;99.90
12872;DHT22;6504;53.766;9.626;2022-08-21T15:53:45;27.50;99.90
12872;DHT22;6504;53.766;9.626;2022-08-21T15:56:21;27.50;99.90
12872;DHT22;6504;53.766;9.626;2022-08-21T15:59:00;27.40;99.90
12872;DHT22;6504;53.766;9.626;2022-08-21T16:01:33;27.30;99.90
12872;DHT22;6504;53.766;9.626;2022-08-21T16:04:20;27.20;99.90
12872;DHT22;6504;53.766;9.626;2022-08-21T16:06:49;27.00;99.90
12872;DHT22;6504;53.766;9.626;2022-08-21T16:09:21;26.90;99.90
12872;DHT22;6504;53.766;9.626;2022-08-21T16:11:50;26.90;99.90
12872;DHT22;6504;53.766;9.626;2022-08-21T16:14:19;26.80;99.90
12872;DHT22;6504;53.766;9.626;2022-08-21T16:16:51;26.70;99.90
12872;DHT22;6504;53.766;9.626;2022-08-21T16:19:19;26.60;99.90
12872;DHT22;6504;53.766;9.626;2022-08-21T16:21:48;26.50;99.90